sensor_id;sensor_type;location;lat;lon;timestamp;pressure;altitude;pressure_sealevel;temperature;humidity
18918;BME280;9591;52.742;13.650;2022-08-21T00:00:29;101072.25;;;18.42;100.00
18918;BME280;9591;52.742;13.650;2022-08-21T00:03:18;101066.97;;;18.40;100.00
18918;BME280;9591;52.742;13.650;2022-08-21T00:06:05;101070.34;;;18.44;100.00
18918;BME280;9591;52.742;13.650;2022-08-21T00:08:58;101061.50;;;18.42;100.00
18918;BME280;9591;52.742;13.650;2022-08-21T00:11:50;101052.78;;;18.38;100.00
18918;BME280;9591;52.742;13.650;2022-08-21T00:14:37;101056.50;;;18.35;100.00
18918;BME280;9591;52.742;13.650;2022-08-21T00:17:24;101057.66;;;18.31;100.00
18918;BME280;9591;52.742;13.650;2022-08-21T00:20:14;101059.38;;;18.32;100.00
18918;BME280;9591;52.742;13.650;2022-08-21T00:23:01;101054.88;;;18.33;100.00
18918;BME280;9591;52.742;13.650;2022-08-21T00:25:47;101057.38;;;18.36;100.00
18918;BME280;9591;52.742;13.650;2022-08-21T00:28:34;101061.19;;;18.32;100.00
18918;BME280;9591;52.742;13.650;2022-08-21T00:31:21;101059.28;;;18.34;100.00
18918;BME280;9591;52.742;13.650;2022-08-21T00:34:09;101058.34;;;18.35;100.00
18918;BME280;9591;52.742;13.650;2022-08-21T00:36:57;101054.00;;;18.32;100.00
18918;BME280;9591;52.742;13.650;2022-08-21T00:39:44;101052.38;;;18.30;100.00
18918;BME280;9591;52.742;13.650;2022-08-21T00:42:30;101048.06;;;18.27;100.00
18918;BME280;9591;52.742;13.650;2022-08-21T00:45:17;101050.06;;;18.24;100.00
18918;BME280;9591;52.742;13.650;2022-08-21T00:48:04;101044.59;;;18.25;100.00
18918;BME280;9591;52.742;13.650;2022-08-21T00:50:56;101050.16;;;18.22;100.00
18918;BME280;9591;52.742;13.650;2022-08-21T00:53:45;101036.97;;;18.19;100.00
18918;BME280;9591;52.742;13.650;2022-08-21T00:56:38;101045.47;;;18.26;100.00
18918;BME280;9591;52.742;13.650;2022-08-21T00:59:29;101052.53;;;18.13;100.00
18918;BME280;9591;52.742;13.650;2022-08-21T01:02:19;101054.34;;;18.12;100.00
18918;BME280;9591;52.742;13.650;2022-08-21T01:05:06;101046.34;;;17.96;100.00
18918;BME280;9591;52.742;13.650;2022-08-21T01:07:54;101049.88;;;17.97;100.00
18918;BME280;9591;52.742;13.650;2022-08-21T01:10:43;101055.69;;;17.89;100.00
18918;BME280;9591;52.742;13.650;2022-08-21T01:13:37;101058.28;;;17.91;100.00
18918;BME280;9591;52.742;13.650;2022-08-21T01:16:30;101057.00;;;17.82;100.00
18918;BME280;9591;52.742;13.650;2022-08-21T01:19:18;101058.13;;;17.78;100.00
18918;BME280;9591;52.742;13.650;2022-08-21T01:22:07;101045.31;;;17.67;100.00
18918;BME280;9591;52.742;13.650;2022-08-21T01:24:54;101047.56;;;17.75;100.00
18918;BME280;9591;52.742;13.650;2022-08-21T01:27:41;101051.13;;;17.76;100.00
18918;BME280;9591;52.742;13.650;2022-08-21T01:30:28;101055.19;;;17.67;100.00
18918;BME280;9591;52.742;13.650;2022-08-21T01:33:15;101053.38;;;17.67;100.00
18918;BME280;9591;52.742;13.650;2022-08-21T01:36:03;101060.34;;;17.70;100.00
18918;BME280;9591;52.742;13.650;2022-08-21T01:38:51;101067.94;;;17.62;100.00
18918;BME280;9591;52.742;13.650;2022-08-21T01:41:38;101069.75;;;17.61;100.00
18918;BME280;9591;52.742;13.650;2022-08-21T01:44:25;101068.13;;;17.75;100.00
18918;BME280;9591;52.742;13.650;2022-08-21T01:47:13;101071.56;;;17.61;100.00
18918;BME280;9591;52.742;13.650;2022-08-21T01:50:04;101070.09;;;17.55;100.00
18918;BME280;9591;52.742;13.650;2022-08-21T01:52:51;101074.41;;;17.58;100.00
18918;BME280;9591;52.742;13.650;2022-08-21T01:55:39;101071.81;;;17.56;100.00
18918;BME280;9591;52.742;13.650;2022-08-21T01:58:26;101072.06;;;17.52;100.00
18918;BME280;9591;52.742;13.650;2022-08-21T02:01:14;101071.13;;;17.53;100.00
18918;BME280;9591;52.742;13.650;2022-08-21T02:04:01;101065.06;;;17.49;100.00
18918;BME280;9591;52.742;13.650;2022-08-21T02:06:48;101056.44;;;17.44;100.00
18918;BME280;9591;52.742;13.650;2022-08-21T02:09:36;101058.50;;;17.39;100.00
18918;BME280;9591;52.742;13.650;2022-08-21T02:12:25;101061.44;;;17.34;100.00
18918;BME280;9591;52.742;13.650;2022-08-21T02:15:12;101066.13;;;17.31;100.00
18918;BME280;9591;52.742;13.650;2022-08-21T02:18:02;101056.59;;;17.25;100.00
18918;BME280;9591;52.742;13.650;2022-08-21T02:20:49;101070.00;;;17.25;100.00
18918;BME280;9591;52.742;13.650;2022-08-21T02:23:41;101067.56;;;17.21;100.00
18918;BME280;9591;52.742;13.650;2022-08-21T02:26:27;101068.59;;;17.18;100.00
18918;BME280;9591;52.742;13.650;2022-08-21T02:29:15;101065.13;;;17.16;100.00
18918;BME280;9591;52.742;13.650;2022-08-21T02:32:03;101061.69;;;17.14;100.00
18918;BME280;9591;52.742;13.650;2022-08-21T02:34:49;101066.25;;;17.12;100.00
18918;BME280;9591;52.742;13.650;2022-08-21T02:37:43;101071.94;;;17.06;100.00
18918;BME280;9591;52.742;13.650;2022-08-21T02:40:32;101070.28;;;17.03;100.00
18918;BME280;9591;52.742;13.650;2022-08-21T02:43:20;101065.25;;;16.97;100.00
18918;BME280;9591;52.742;13.650;2022-08-21T02:46:10;101064.63;;;16.92;100.00
18918;BME280;9591;52.742;13.650;2022-08-21T02:48:58;101061.34;;;16.87;100.00
18918;BME280;9591;52.742;13.650;2022-08-21T02:51:45;101042.41;;;16.75;100.00
18918;BME280;9591;52.742;13.650;2022-08-21T02:54:32;101061.59;;;16.83;100.00
18918;BME280;9591;52.742;13.650;2022-08-21T02:57:19;101059.16;;;16.78;100.00
18918;BME280;9591;52.742;13.650;2022-08-21T03:00:07;101040.84;;;16.70;100.00
18918;BME280;9591;52.742;13.650;2022-08-21T03:02:57;101066.31;;;16.78;100.00
18918;BME280;9591;52.742;13.650;2022-08-21T03:05:44;101063.78;;;16.75;100.00
18918;BME280;9591;52.742;13.650;2022-08-21T03:08:30;101068.03;;;16.79;100.00
18918;BME280;9591;52.742;13.650;2022-08-21T03:11:17;101065.06;;;16.67;100.00
18918;BME280;9591;52.742;13.650;2022-08-21T03:14:05;101064.31;;;16.64;100.00
18918;BME280;9591;52.742;13.650;2022-08-21T03:16:52;101060.66;;;16.66;100.00
18918;BME280;9591;52.742;13.650;2022-08-21T03:19:41;101062.59;;;16.63;100.00
18918;BME280;9591;52.742;13.650;2022-08-21T03:22:28;101063.47;;;16.63;100.00
18918;BME280;9591;52.742;13.650;2022-08-21T03:25:15;101065.75;;;16.54;100.00
18918;BME280;9591;52.742;13.650;2022-08-21T03:28:07;101073.06;;;16.50;100.00
18918;BME280;9591;52.742;13.650;2022-08-21T03:30:58;101067.00;;;16.47;100.00
18918;BME280;9591;52.742;13.650;2022-08-21T03:33:44;101063.56;;;16.45;100.00
18918;BME280;9591;52.742;13.650;2022-08-21T03:36:33;101059.97;;;16.46;100.00
18918;BME280;9591;52.742;13.650;2022-08-21T03:39:19;101065.78;;;16.36;100.00
18918;BME280;9591;52.742;13.650;2022-08-21T03:42:06;101065.94;;;16.33;100.00
18918;BME280;9591;52.742;13.650;2022-08-21T03:44:53;101072.28;;;16.31;100.00
18918;BME280;9591;52.742;13.650;2022-08-21T03:47:50;101075.81;;;16.31;100.00
18918;BME280;9591;52.742;13.650;2022-08-21T03:50:40;101062.22;;;16.19;100.00
18918;BME280;9591;52.742;13.650;2022-08-21T03:53:28;101070.94;;;16.22;100.00
18918;BME280;9591;52.742;13.650;2022-08-21T03:56:15;101071.72;;;16.24;100.00
18918;BME280;9591;52.742;13.650;2022-08-21T03:59:02;101068.28;;;16.22;100.00
18918;BME280;9591;52.742;13.650;2022-08-21T04:01:53;101074.63;;;16.20;100.00
18918;BME280;9591;52.742;13.650;2022-08-21T04:04:39;101072.03;;;16.18;100.00
18918;BME280;9591;52.742;13.650;2022-08-21T04:07:26;101069.22;;;16.21;100.00
18918;BME280;9591;52.742;13.650;2022-08-21T04:10:14;101069.38;;;16.18;100.00
18918;BME280;9591;52.742;13.650;2022-08-21T04:13:02;101078.25;;;16.19;100.00
18918;BME280;9591;52.742;13.650;2022-08-21T04:15:48;101076.66;;;16.15;100.00
18918;BME280;9591;52.742;13.650;2022-08-21T04:18:35;101082.97;;;16.14;100.00
18918;BME280;9591;52.742;13.650;2022-08-21T04:21:22;101081.94;;;16.16;100.00
18918;BME280;9591;52.742;13.650;2022-08-21T04:24:09;101084.31;;;16.22;100.00
18918;BME280;9591;52.742;13.650;2022-08-21T04:26:58;101078.19;;;16.37;100.00
18918;BME280;9591;52.742;13.650;2022-08-21T04:29:45;101087.75;;;16.24;100.00
18918;BME280;9591;52.742;13.650;2022-08-21T04:32:31;101081.72;;;16.21;100.00
18918;BME280;9591;52.742;13.650;2022-08-21T04:35:21;101085.31;;;16.20;100.00
18918;BME280;9591;52.742;13.650;2022-08-21T04:38:09;101088.06;;;16.18;100.00
18918;BME280;9591;52.742;13.650;2022-08-21T04:40:55;101082.56;;;16.21;100.00
18918;BME280;9591;52.742;13.650;2022-08-21T04:43:43;101068.38;;;16.38;100.00
18918;BME280;9591;52.742;13.650;2022-08-21T04:46:30;101080.53;;;16.26;100.00
18918;BME280;9591;52.742;13.650;2022-08-21T04:49:17;101073.16;;;16.31;100.00
18918;BME280;9591;52.742;13.650;2022-08-21T04:52:04;101079.03;;;16.21;100.00
18918;BME280;9591;52.742;13.650;2022-08-21T04:54:51;101086.03;;;16.23;100.00
18918;BME280;9591;52.742;13.650;2022-08-21T04:57:40;101073.63;;;16.22;100.00
18918;BME280;9591;52.742;13.650;2022-08-21T05:00:34;101082.13;;;16.30;100.00
18918;BME280;9591;52.742;13.650;2022-08-21T05:03:22;101090.28;;;16.27;100.00
18918;BME280;9591;52.742;13.650;2022-08-21T05:06:10;101083.63;;;16.36;100.00
18918;BME280;9591;52.742;13.650;2022-08-21T05:08:58;101089.03;;;16.34;100.00
18918;BME280;9591;52.742;13.650;2022-08-21T05:11:46;101088.09;;;16.35;100.00
18918;BME280;9591;52.742;13.650;2022-08-21T05:14:34;101083.31;;;16.42;100.00
18918;BME280;9591;52.742;13.650;2022-08-21T05:17:22;101076.47;;;16.36;100.00
18918;BME280;9591;52.742;13.650;2022-08-21T05:20:10;101069.69;;;16.29;100.00
18918;BME280;9591;52.742;13.650;2022-08-21T05:22:57;101080.88;;;16.37;100.00
18918;BME280;9591;52.742;13.650;2022-08-21T05:25:44;101089.03;;;16.34;100.00
18918;BME280;9591;52.742;13.650;2022-08-21T05:28:33;101090.47;;;16.42;100.00
18918;BME280;9591;52.742;13.650;2022-08-21T05:31:19;101087.00;;;16.39;100.00
18918;BME280;9591;52.742;13.650;2022-08-21T05:34:08;101093.06;;;16.43;100.00
18918;BME280;9591;52.742;13.650;2022-08-21T05:36:54;101095.97;;;16.38;100.00
18918;BME280;9591;52.742;13.650;2022-08-21T05:39:41;101095.81;;;16.42;100.00
18918;BME280;9591;52.742;13.650;2022-08-21T05:42:48;101106.72;;;16.54;100.00
18918;BME280;9591;52.742;13.650;2022-08-21T05:45:39;101098.19;;;16.65;100.00
18918;BME280;9591;52.742;13.650;2022-08-21T05:48:28;101106.97;;;16.67;100.00
18918;BME280;9591;52.742;13.650;2022-08-21T05:51:16;101099.75;;;16.69;100.00
18918;BME280;9591;52.742;13.650;2022-08-21T05:54:03;101104.22;;;16.68;100.00
18918;BME280;9591;52.742;13.650;2022-08-21T05:56:50;101104.22;;;16.68;100.00
18918;BME280;9591;52.742;13.650;2022-08-21T05:59:37;101098.41;;;16.78;100.00
18918;BME280;9591;52.742;13.650;2022-08-21T06:02:23;101098.41;;;16.78;100.00
18918;BME280;9591;52.742;13.650;2022-08-21T06:05:10;101097.94;;;16.87;100.00
18918;BME280;9591;52.742;13.650;2022-08-21T06:08:11;101099.66;;;16.88;100.00
18918;BME280;9591;52.742;13.650;2022-08-21T06:10:59;101108.22;;;16.94;100.00
18918;BME280;9591;52.742;13.650;2022-08-21T06:13:45;101111.38;;;17.02;100.00
18918;BME280;9591;52.742;13.650;2022-08-21T06:16:32;101098.59;;;17.08;100.00
18918;BME280;9591;52.742;13.650;2022-08-21T06:19:19;101096.56;;;17.13;100.00
18918;BME280;9591;52.742;13.650;2022-08-21T06:22:06;101105.75;;;17.07;100.00
18918;BME280;9591;52.742;13.650;2022-08-21T06:24:54;101099.06;;;17.16;100.00
18918;BME280;9591;52.742;13.650;2022-08-21T06:27:41;101110.63;;;17.16;100.00
18918;BME280;9591;52.742;13.650;2022-08-21T06:30:28;101105.72;;;17.24;100.00
18918;BME280;9591;52.742;13.650;2022-08-21T06:33:15;101112.41;;;17.33;100.00
18918;BME280;9591;52.742;13.650;2022-08-21T06:36:03;101114.22;;;17.48;100.00
18918;BME280;9591;52.742;13.650;2022-08-21T06:38:50;101107.75;;;17.52;100.00
18918;BME280;9591;52.742;13.650;2022-08-21T06:41:38;101108.28;;;17.59;100.00
18918;BME280;9591;52.742;13.650;2022-08-21T06:44:26;101112.03;;;17.72;100.00
18918;BME280;9591;52.742;13.650;2022-08-21T06:47:13;101107.88;;;17.66;100.00
18918;BME280;9591;52.742;13.650;2022-08-21T06:50:00;101105.13;;;17.84;100.00
18918;BME280;9591;52.742;13.650;2022-08-21T06:52:48;101101.75;;;17.80;100.00
18918;BME280;9591;52.742;13.650;2022-08-21T06:55:36;101111.44;;;17.83;100.00
18918;BME280;9591;52.742;13.650;2022-08-21T06:58:25;101106.84;;;18.00;100.00
18918;BME280;9591;52.742;13.650;2022-08-21T07:01:12;101117.03;;;18.10;100.00
18918;BME280;9591;52.742;13.650;2022-08-21T07:03:59;101115.13;;;18.12;100.00
18918;BME280;9591;52.742;13.650;2022-08-21T07:06:45;101114.09;;;18.14;100.00
18918;BME280;9591;52.742;13.650;2022-08-21T07:09:32;101123.69;;;18.18;100.00
18918;BME280;9591;52.742;13.650;2022-08-21T07:12:19;101113.91;;;18.17;100.00
18918;BME280;9591;52.742;13.650;2022-08-21T07:15:08;101119.72;;;18.10;100.00
18918;BME280;9591;52.742;13.650;2022-08-21T07:17:55;101125.09;;;18.10;100.00
18918;BME280;9591;52.742;13.650;2022-08-21T07:20:42;101124.44;;;18.20;100.00
18918;BME280;9591;52.742;13.650;2022-08-21T07:23:31;101108.94;;;18.25;100.00
18918;BME280;9591;52.742;13.650;2022-08-21T07:26:20;101109.91;;;18.24;100.00
18918;BME280;9591;52.742;13.650;2022-08-21T07:29:08;101121.66;;;18.22;100.00
18918;BME280;9591;52.742;13.650;2022-08-21T07:31:57;101115.78;;;18.31;100.00
18918;BME280;9591;52.742;13.650;2022-08-21T07:34:45;101112.91;;;18.34;100.00
18918;BME280;9591;52.742;13.650;2022-08-21T07:37:33;101109.75;;;18.57;100.00
18918;BME280;9591;52.742;13.650;2022-08-21T07:40:20;101108.19;;;18.69;100.00
18918;BME280;9591;52.742;13.650;2022-08-21T07:43:07;101113.91;;;18.63;100.00
18918;BME280;9591;52.742;13.650;2022-08-21T07:45:54;101116.94;;;18.87;100.00
18918;BME280;9591;52.742;13.650;2022-08-21T07:48:44;101109.78;;;19.02;100.00
18918;BME280;9591;52.742;13.650;2022-08-21T07:51:33;101100.28;;;19.10;100.00
18918;BME280;9591;52.742;13.650;2022-08-21T07:54:20;101089.66;;;18.94;100.00
18918;BME280;9591;52.742;13.650;2022-08-21T07:57:19;101105.34;;;19.29;100.00
18918;BME280;9591;52.742;13.650;2022-08-21T08:00:09;101108.91;;;19.44;100.00
18918;BME280;9591;52.742;13.650;2022-08-21T08:02:57;101112.47;;;19.30;100.00
18918;BME280;9591;52.742;13.650;2022-08-21T08:05:46;101107.19;;;19.43;100.00
18918;BME280;9591;52.742;13.650;2022-08-21T08:08:34;101110.06;;;19.40;100.00
18918;BME280;9591;52.742;13.650;2022-08-21T08:11:21;101108.63;;;19.34;100.00
18918;BME280;9591;52.742;13.650;2022-08-21T08:14:09;101110.94;;;19.54;100.00
18918;BME280;9591;52.742;13.650;2022-08-21T08:16:57;101110.38;;;19.63;100.00
18918;BME280;9591;52.742;13.650;2022-08-21T08:19:44;101113.22;;;19.75;100.00
18918;BME280;9591;52.742;13.650;2022-08-21T08:22:34;101111.91;;;19.68;100.00
18918;BME280;9591;52.742;13.650;2022-08-21T08:25:23;101103.31;;;19.89;100.00
18918;BME280;9591;52.742;13.650;2022-08-21T08:28:10;101108.78;;;19.88;100.00
18918;BME280;9591;52.742;13.650;2022-08-21T08:31:02;101109.34;;;19.93;100.00
18918;BME280;9591;52.742;13.650;2022-08-21T08:33:48;101115.41;;;20.09;100.00
18918;BME280;9591;52.742;13.650;2022-08-21T08:36:36;101114.09;;;20.02;100.00
18918;BME280;9591;52.742;13.650;2022-08-21T08:39:26;101104.66;;;20.09;100.00
18918;BME280;9591;52.742;13.650;2022-08-21T08:42:16;101106.91;;;20.29;100.00
18918;BME280;9591;52.742;13.650;2022-08-21T08:45:20;101108.91;;;20.40;100.00
18918;BME280;9591;52.742;13.650;2022-08-21T08:48:10;101099.56;;;20.46;100.00
18918;BME280;9591;52.742;13.650;2022-08-21T08:51:00;101099.34;;;20.49;100.00
18918;BME280;9591;52.742;13.650;2022-08-21T08:53:51;101093.41;;;20.44;100.00
18918;BME280;9591;52.742;13.650;2022-08-21T08:56:40;101096.38;;;20.66;100.00
18918;BME280;9591;52.742;13.650;2022-08-21T08:59:33;101103.34;;;20.56;100.00
18918;BME280;9591;52.742;13.650;2022-08-21T09:02:24;101099.50;;;20.73;100.00
18918;BME280;9591;52.742;13.650;2022-08-21T09:05:24;101093.81;;;20.77;100.00
18918;BME280;9591;52.742;13.650;2022-08-21T09:08:23;101093.91;;;20.88;100.00
18918;BME280;9591;52.742;13.650;2022-08-21T09:11:22;101091.97;;;21.03;100.00
18918;BME280;9591;52.742;13.650;2022-08-21T09:14:22;101091.44;;;21.11;100.00
18918;BME280;9591;52.742;13.650;2022-08-21T09:17:19;101095.09;;;21.10;100.00
18918;BME280;9591;52.742;13.650;2022-08-21T09:20:19;101103.84;;;21.26;100.00
18918;BME280;9591;52.742;13.650;2022-08-21T09:23:22;101103.09;;;21.24;100.00
18918;BME280;9591;52.742;13.650;2022-08-21T09:26:16;101107.06;;;21.18;100.00
18918;BME280;9591;52.742;13.650;2022-08-21T09:29:03;101100.69;;;21.19;100.00
18918;BME280;9591;52.742;13.650;2022-08-21T09:31:52;101100.41;;;21.37;100.00
18918;BME280;9591;52.742;13.650;2022-08-21T09:34:39;101105.47;;;21.29;100.00
18918;BME280;9591;52.742;13.650;2022-08-21T09:37:28;101092.41;;;21.48;100.00
18918;BME280;9591;52.742;13.650;2022-08-21T09:40:21;101095.31;;;21.45;100.00
18918;BME280;9591;52.742;13.650;2022-08-21T09:43:17;101096.81;;;21.49;100.00
18918;BME280;9591;52.742;13.650;2022-08-21T09:46:08;101092.19;;;21.38;100.00
18918;BME280;9591;52.742;13.650;2022-08-21T09:48:59;101092.09;;;21.40;100.00
18918;BME280;9591;52.742;13.650;2022-08-21T09:51:50;101088.97;;;21.46;100.00
18918;BME280;9591;52.742;13.650;2022-08-21T09:54:40;101087.34;;;21.43;100.00
18918;BME280;9591;52.742;13.650;2022-08-21T09:57:29;101087.34;;;21.43;100.00
18918;BME280;9591;52.742;13.650;2022-08-21T10:00:33;101086.56;;;21.54;100.00
18918;BME280;9591;52.742;13.650;2022-08-21T10:03:21;101086.59;;;21.41;100.00
18918;BME280;9591;52.742;13.650;2022-08-21T10:06:22;101085.19;;;21.48;100.00
18918;BME280;9591;52.742;13.650;2022-08-21T10:09:12;101093.25;;;21.48;100.00
18918;BME280;9591;52.742;13.650;2022-08-21T10:12:13;101090.25;;;21.40;100.00
18918;BME280;9591;52.742;13.650;2022-08-21T10:15:06;101086.47;;;21.55;100.00
18918;BME280;9591;52.742;13.650;2022-08-21T10:18:02;101089.50;;;21.75;100.00
18918;BME280;9591;52.742;13.650;2022-08-21T10:20:54;101087.63;;;21.64;100.00
18918;BME280;9591;52.742;13.650;2022-08-21T10:23:57;101085.16;;;21.85;100.00
18918;BME280;9591;52.742;13.650;2022-08-21T10:26:54;101092.28;;;21.86;100.00
18918;BME280;9591;52.742;13.650;2022-08-21T10:29:47;101094.19;;;21.97;100.00
18918;BME280;9591;52.742;13.650;2022-08-21T10:32:48;101093.09;;;21.99;100.00
18918;BME280;9591;52.742;13.650;2022-08-21T10:35:41;101094.00;;;21.87;100.00
18918;BME280;9591;52.742;13.650;2022-08-21T10:38:59;101094.81;;;22.00;100.00
18918;BME280;9591;52.742;13.650;2022-08-21T10:42:22;101095.13;;;21.72;100.00
18918;BME280;9591;52.742;13.650;2022-08-21T10:45:19;101092.22;;;21.75;100.00
18918;BME280;9591;52.742;13.650;2022-08-21T10:48:18;101092.38;;;21.61;100.00
18918;BME280;9591;52.742;13.650;2022-08-21T10:51:10;101093.56;;;21.56;100.00
18918;BME280;9591;52.742;13.650;2022-08-21T10:54:07;101088.06;;;21.58;100.00
18918;BME280;9591;52.742;13.650;2022-08-21T10:57:02;101090.56;;;21.48;100.00
18918;BME280;9591;52.742;13.650;2022-08-21T10:59:55;101086.03;;;21.49;100.00
18918;BME280;9591;52.742;13.650;2022-08-21T11:02:48;101101.13;;;21.51;100.00
18918;BME280;9591;52.742;13.650;2022-08-21T11:05:41;101092.91;;;21.66;100.00
18918;BME280;9591;52.742;13.650;2022-08-21T11:08:38;101095.88;;;21.74;100.00
18918;BME280;9591;52.742;13.650;2022-08-21T11:11:32;101096.59;;;21.88;100.00
18918;BME280;9591;52.742;13.650;2022-08-21T11:14:25;101098.31;;;21.89;100.00
18918;BME280;9591;52.742;13.650;2022-08-21T11:17:20;101090.34;;;21.88;100.00
18918;BME280;9591;52.742;13.650;2022-08-21T11:20:14;101099.16;;;21.90;100.00
18918;BME280;9591;52.742;13.650;2022-08-21T11:23:07;101090.25;;;21.77;100.00
18918;BME280;9591;52.742;13.650;2022-08-21T11:26:02;101098.38;;;22.01;100.00
18918;BME280;9591;52.742;13.650;2022-08-21T11:28:57;101107.59;;;22.22;100.00
18918;BME280;9591;52.742;13.650;2022-08-21T11:32:21;101096.66;;;22.00;100.00
18918;BME280;9591;52.742;13.650;2022-08-21T11:35:17;101096.00;;;22.09;100.00
18918;BME280;9591;52.742;13.650;2022-08-21T11:38:22;101101.16;;;22.36;98.58
18918;BME280;9591;52.742;13.650;2022-08-21T11:41:20;101094.97;;;22.57;100.00
18918;BME280;9591;52.742;13.650;2022-08-21T11:44:16;101093.03;;;22.95;99.56
18918;BME280;9591;52.742;13.650;2022-08-21T11:47:10;101087.16;;;23.23;96.43
18918;BME280;9591;52.742;13.650;2022-08-21T11:50:12;101095.25;;;23.12;86.57
18918;BME280;9591;52.742;13.650;2022-08-21T11:53:24;101096.63;;;23.40;78.99
18918;BME280;9591;52.742;13.650;2022-08-21T11:56:18;101092.28;;;23.48;96.80
18918;BME280;9591;52.742;13.650;2022-08-21T11:59:13;101088.38;;;23.19;100.00
18918;BME280;9591;52.742;13.650;2022-08-21T12:02:10;101086.31;;;23.23;97.05
18918;BME280;9591;52.742;13.650;2022-08-21T12:05:02;101087.28;;;23.33;87.83
18918;BME280;9591;52.742;13.650;2022-08-21T12:08:05;101093.91;;;23.17;93.99
18918;BME280;9591;52.742;13.650;2022-08-21T12:11:01;101090.22;;;23.41;92.37
18918;BME280;9591;52.742;13.650;2022-08-21T12:13:54;101093.66;;;23.20;76.25
18918;BME280;9591;52.742;13.650;2022-08-21T12:16:45;101091.69;;;23.00;77.12
18918;BME280;9591;52.742;13.650;2022-08-21T12:19:31;101086.63;;;22.84;91.84
18918;BME280;9591;52.742;13.650;2022-08-21T12:22:19;101090.13;;;22.74;93.78
18918;BME280;9591;52.742;13.650;2022-08-21T12:25:09;101091.44;;;22.68;100.00
18918;BME280;9591;52.742;13.650;2022-08-21T12:28:06;101079.50;;;22.83;100.00
18918;BME280;9591;52.742;13.650;2022-08-21T12:30:53;101075.00;;;22.71;100.00
18918;BME280;9591;52.742;13.650;2022-08-21T12:33:51;101078.94;;;22.67;96.80
18918;BME280;9591;52.742;13.650;2022-08-21T12:36:43;101075.84;;;22.61;100.00
18918;BME280;9591;52.742;13.650;2022-08-21T12:39:33;101078.56;;;22.72;91.15
18918;BME280;9591;52.742;13.650;2022-08-21T12:42:23;101069.72;;;23.05;100.00
18918;BME280;9591;52.742;13.650;2022-08-21T12:45:17;101072.56;;;23.26;93.27
18918;BME280;9591;52.742;13.650;2022-08-21T12:48:09;101082.97;;;23.52;85.44
18918;BME280;9591;52.742;13.650;2022-08-21T12:51:08;101080.03;;;23.67;80.57
18918;BME280;9591;52.742;13.650;2022-08-21T12:53:58;101086.19;;;23.58;74.52
18918;BME280;9591;52.742;13.650;2022-08-21T12:56:56;101075.13;;;23.38;87.92
18918;BME280;9591;52.742;13.650;2022-08-21T12:59:43;101068.34;;;22.99;92.42
18918;BME280;9591;52.742;13.650;2022-08-21T13:02:31;101060.00;;;23.02;94.31
18918;BME280;9591;52.742;13.650;2022-08-21T13:05:27;101074.91;;;22.73;98.21
18918;BME280;9591;52.742;13.650;2022-08-21T13:08:16;101076.63;;;22.74;91.84
18918;BME280;9591;52.742;13.650;2022-08-21T13:11:05;101078.44;;;22.73;94.85
18918;BME280;9591;52.742;13.650;2022-08-21T13:14:01;101072.41;;;22.58;100.00
18918;BME280;9591;52.742;13.650;2022-08-21T13:16:53;101071.31;;;22.50;100.00
18918;BME280;9591;52.742;13.650;2022-08-21T13:19:40;101071.53;;;22.47;100.00
18918;BME280;9591;52.742;13.650;2022-08-21T13:22:28;101071.31;;;22.50;100.00
18918;BME280;9591;52.742;13.650;2022-08-21T13:25:26;101067.63;;;22.51;100.00
18918;BME280;9591;52.742;13.650;2022-08-21T13:28:13;101066.88;;;22.49;100.00
18918;BME280;9591;52.742;13.650;2022-08-21T13:31:00;101070.13;;;22.30;100.00
18918;BME280;9591;52.742;13.650;2022-08-21T13:33:48;101059.69;;;22.26;100.00
18918;BME280;9591;52.742;13.650;2022-08-21T13:36:37;101071.09;;;22.05;100.00
18918;BME280;9591;52.742;13.650;2022-08-21T13:39:26;101064.28;;;21.76;97.15
18918;BME280;9591;52.742;13.650;2022-08-21T13:42:15;101071.09;;;21.69;91.26
18918;BME280;9591;52.742;13.650;2022-08-21T13:45:02;101073.34;;;21.75;92.58
18918;BME280;9591;52.742;13.650;2022-08-21T13:47:49;101084.69;;;21.67;88.01
18918;BME280;9591;52.742;13.650;2022-08-21T13:50:38;101079.59;;;21.75;90.28
18918;BME280;9591;52.742;13.650;2022-08-21T13:53:29;101079.25;;;21.43;89.76
18918;BME280;9591;52.742;13.650;2022-08-21T13:56:24;101074.59;;;21.82;88.42
18918;BME280;9591;52.742;13.650;2022-08-21T13:59:23;101070.03;;;21.95;87.19
18918;BME280;9591;52.742;13.650;2022-08-21T14:02:13;101075.63;;;22.05;74.91
18918;BME280;9591;52.742;13.650;2022-08-21T14:05:02;101068.63;;;22.02;88.20
18918;BME280;9591;52.742;13.650;2022-08-21T14:07:50;101065.19;;;22.24;81.50
18918;BME280;9591;52.742;13.650;2022-08-21T14:10:42;101063.88;;;22.30;84.63
18918;BME280;9591;52.742;13.650;2022-08-21T14:13:36;101059.31;;;22.30;70.14
18918;BME280;9591;52.742;13.650;2022-08-21T14:16:28;101068.59;;;22.50;70.60
18918;BME280;9591;52.742;13.650;2022-08-21T14:19:19;101062.69;;;22.80;64.07
18918;BME280;9591;52.742;13.650;2022-08-21T14:22:29;101039.00;;;22.95;65.60
18918;BME280;9591;52.742;13.650;2022-08-21T14:25:28;101064.50;;;22.79;66.88
18918;BME280;9591;52.742;13.650;2022-08-21T14:28:19;101040.59;;;22.86;73.98
18918;BME280;9591;52.742;13.650;2022-08-21T14:31:15;101050.94;;;22.57;81.47
18918;BME280;9591;52.742;13.650;2022-08-21T14:34:05;101049.44;;;22.42;81.00
18918;BME280;9591;52.742;13.650;2022-08-21T14:37:04;101051.50;;;22.38;79.85
18918;BME280;9591;52.742;13.650;2022-08-21T14:39:51;101045.69;;;22.20;81.90